createdAt,value
2018-03-16T00:00:16.869Z,99791.08
2018-03-16T00:01:23.331Z,99794.44
2018-03-16T00:02:26.810Z,99791.42
2018-03-16T00:03:30.987Z,99788.07
2018-03-16T00:04:40.850Z,99786.78
2018-03-16T00:05:46.897Z,99797.80
2018-03-16T00:06:53.981Z,99788.96
2018-03-16T00:07:58.223Z,99799.59
2018-03-16T00:09:02.468Z,99798.73
2018-03-16T00:10:15.949Z,99792.41
2018-03-16T00:11:22.587Z,99791.09
2018-03-16T00:12:26.783Z,99794.48
2018-03-16T00:13:30.996Z,99802.95
2018-03-16T00:14:40.859Z,99796.27
2018-03-16T00:15:47.654Z,99800.81
2018-03-16T00:16:53.917Z,99801.78
2018-03-16T00:17:58.128Z,99805.28
2018-03-16T00:19:02.309Z,99794.98
2018-03-16T00:20:12.091Z,99800.52
2018-03-16T00:21:19.401Z,99797.45
2018-03-16T00:22:42.205Z,99806.38
2018-03-16T00:23:51.812Z,99803.35
2018-03-16T00:24:56.013Z,99809.34
2018-03-16T00:26:00.175Z,99805.53
2018-03-16T00:27:08.260Z,99805.97
2018-03-16T00:28:14.256Z,99809.75
2018-03-16T00:29:23.536Z,99808.38
2018-03-16T00:30:27.763Z,99814.95
2018-03-16T00:31:31.953Z,99817.02
2018-03-16T00:32:40.469Z,99815.73
2018-03-16T00:33:47.006Z,99813.69
2018-03-16T00:34:53.453Z,99816.09
2018-03-16T00:35:57.656Z,99818.61
2018-03-16T00:37:01.861Z,99819.02
2018-03-16T00:38:11.554Z,99820.77
2018-03-16T00:39:20.022Z,99815.02
2018-03-16T00:40:25.264Z,99819.69
2018-03-16T00:41:30.194Z,99825.14
2018-03-16T00:42:36.857Z,99823.41
2018-03-16T00:43:44.060Z,99818.75
2018-03-16T00:44:52.103Z,99820.91
2018-03-16T00:45:56.490Z,99820.06
2018-03-16T00:47:00.674Z,99827.24
2018-03-16T00:48:07.843Z,99830.09
2018-03-16T00:49:15.807Z,99823.39
2018-03-16T00:50:22.212Z,99825.96
2018-03-16T00:51:26.416Z,99822.44
2018-03-16T00:52:31.366Z,99829.78
2018-03-16T00:53:42.279Z,99831.44
2018-03-16T00:54:50.677Z,99823.52
2018-03-16T00:55:55.066Z,99827.32
2018-03-16T00:56:59.231Z,99833.59
2018-03-16T00:58:10.101Z,99829.77
2018-03-16T00:59:22.118Z,99839.08
2018-03-16T01:00:26.334Z,99837.91
2018-03-16T01:01:30.499Z,99834.93
2018-03-16T01:02:36.981Z,99834.31
2018-03-16T01:03:44.004Z,99833.89
2018-03-16T01:04:50.671Z,99835.58
2018-03-16T01:05:55.093Z,99841.52
2018-03-16T01:06:59.274Z,99830.97
2018-03-16T01:08:05.965Z,99831.86
2018-03-16T01:09:15.935Z,99833.11
2018-03-16T01:10:23.396Z,99832.69
2018-03-16T01:11:27.633Z,99831.77
2018-03-16T01:12:31.809Z,99831.75
2018-03-16T01:13:40.446Z,99836.41
2018-03-16T01:14:48.921Z,99826.74
2018-03-16T01:15:54.136Z,99840.31
2018-03-16T01:16:59.140Z,99834.81
2018-03-16T01:18:03.391Z,99833.06
2018-03-16T01:19:16.134Z,99836.82
2018-03-16T01:20:22.985Z,99835.53
2018-03-16T01:21:27.233Z,99832.09
2018-03-16T01:22:31.446Z,99831.78
2018-03-16T01:23:38.826Z,99836.88
2018-03-16T01:24:47.122Z,99839.06
2018-03-16T01:25:54.347Z,99825.86
2018-03-16T01:26:58.507Z,99832.22
2018-03-16T01:28:02.685Z,99827.48
2018-03-16T01:29:12.801Z,99830.89
2018-03-16T01:30:20.368Z,99821.27
2018-03-16T01:31:24.539Z,99832.25
2018-03-16T01:32:29.467Z,99826.27
2018-03-16T01:33:36.839Z,99825.50
2018-03-16T01:34:46.577Z,99822.95
2018-03-16T01:35:52.610Z,99824.19
2018-03-16T01:36:56.826Z,99828.48
2018-03-16T01:38:02.519Z,99828.00
2018-03-16T01:39:10.872Z,99828.47
2018-03-16T01:40:17.462Z,99825.08
2018-03-16T01:41:24.031Z,99827.19
2018-03-16T01:42:28.989Z,99830.19
2018-03-16T01:43:33.519Z,99817.89
2018-03-16T01:44:50.221Z,99829.28
2018-03-16T01:45:54.927Z,99824.19
2018-03-16T01:46:59.242Z,99833.50
2018-03-16T01:48:04.175Z,99828.35
2018-03-16T01:49:13.760Z,99835.11
2018-03-16T01:50:19.758Z,99837.18
2018-03-16T01:51:24.079Z,99830.53
2018-03-16T01:52:28.323Z,99837.36
2018-03-16T01:53:32.532Z,99829.69
2018-03-16T01:54:41.172Z,99836.49
2018-03-16T01:55:49.111Z,99841.58
2018-03-16T01:56:53.737Z,99833.05
2018-03-16T01:57:57.947Z,99835.55
2018-03-16T01:59:02.188Z,99834.27
2018-03-16T02:00:10.317Z,99831.77
2018-03-16T02:01:16.188Z,99830.97
2018-03-16T02:02:21.984Z,99831.32
2018-03-16T02:03:26.168Z,99837.30
2018-03-16T02:04:30.415Z,99832.60
2018-03-16T02:05:36.424Z,99830.84
2018-03-16T02:06:43.418Z,99831.32
2018-03-16T02:07:50.584Z,99831.80
2018-03-16T02:08:54.759Z,99837.77
2018-03-16T02:09:58.996Z,99830.06
2018-03-16T02:11:06.492Z,99830.05
2018-03-16T02:12:13.554Z,99834.34
2018-03-16T02:13:20.469Z,99827.24
2018-03-16T02:14:25.614Z,99831.02
2018-03-16T02:15:29.864Z,99828.89
2018-03-16T02:16:35.390Z,99828.89
2018-03-16T02:17:43.915Z,99826.68
2018-03-16T02:18:50.504Z,99831.83
2018-03-16T02:19:55.048Z,99827.98
2018-03-16T02:20:59.218Z,99833.91
2018-03-16T02:22:07.201Z,99833.47
2018-03-16T02:23:13.570Z,99841.98
2018-03-16T02:24:20.850Z,99832.70
2018-03-16T02:25:25.115Z,99825.45
2018-03-16T02:26:30.044Z,99827.61
2018-03-16T02:27:38.174Z,99825.91
2018-03-16T02:28:48.777Z,99825.91
2018-03-16T02:29:54.488Z,99823.84
2018-03-16T02:30:58.663Z,99824.63
2018-03-16T02:32:02.897Z,99827.97
2018-03-16T02:33:13.381Z,99823.72
2018-03-16T02:34:19.936Z,99824.78
2018-03-16T02:35:24.533Z,99824.70
2018-03-16T02:36:28.713Z,99813.27
2018-03-16T02:37:32.916Z,99818.84
2018-03-16T02:38:42.240Z,99822.24
2018-03-16T02:39:49.868Z,99821.79
2018-03-16T02:40:55.119Z,99821.84
2018-03-16T02:41:59.344Z,99832.31
2018-03-16T02:43:03.970Z,99829.44
2018-03-16T02:44:12.712Z,99822.72
2018-03-16T02:45:20.158Z,99829.47
2018-03-16T02:46:24.583Z,99835.43
2018-03-16T02:47:28.746Z,99831.55
2018-03-16T02:48:32.930Z,99832.80
2018-03-16T02:49:42.930Z,99832.02
2018-03-16T02:50:49.271Z,99830.28
2018-03-16T02:51:53.771Z,99834.94
2018-03-16T02:52:57.946Z,99839.64
2018-03-16T02:54:02.159Z,99840.53
2018-03-16T02:55:08.920Z,99848.84
2018-03-16T02:56:16.387Z,99841.35
2018-03-16T02:57:22.433Z,99844.23
2018-03-16T02:58:26.644Z,99839.91
2018-03-16T02:59:30.818Z,99842.94
2018-03-16T03:00:40.041Z,99846.66
2018-03-16T03:01:47.640Z,99838.61
2018-03-16T03:02:53.582Z,99840.75
2018-03-16T03:03:58.529Z,99846.30
2018-03-16T03:05:02.737Z,99843.34
2018-03-16T03:06:12.699Z,99850.50
2018-03-16T03:07:20.499Z,99847.52
2018-03-16T03:08:25.304Z,99847.48
2018-03-16T03:09:29.503Z,99845.43
2018-03-16T03:10:34.566Z,99843.73
2018-03-16T03:11:43.531Z,99842.48
2018-03-16T03:12:49.919Z,99843.27
2018-03-16T03:13:54.394Z,99845.31
2018-03-16T03:14:58.559Z,99837.70
2018-03-16T03:16:02.737Z,99836.53
2018-03-16T03:17:12.395Z,99836.50
2018-03-16T03:18:18.847Z,99838.12
2018-03-16T03:19:24.510Z,99841.98
2018-03-16T03:20:28.704Z,99835.58
2018-03-16T03:21:33.821Z,99838.20
2018-03-16T03:22:42.402Z,99838.46
2018-03-16T03:23:49.500Z,99837.34
2018-03-16T03:24:54.862Z,99841.94
2018-03-16T03:25:59.852Z,99847.50
2018-03-16T03:27:05.933Z,99835.62
2018-03-16T03:28:14.868Z,99840.66
2018-03-16T03:29:20.627Z,99845.62
2018-03-16T03:30:25.801Z,99839.72
2018-03-16T03:31:30.819Z,99848.64
2018-03-16T03:32:37.855Z,99845.70
2018-03-16T03:33:44.341Z,99854.94
2018-03-16T03:34:50.070Z,99848.23
2018-03-16T03:35:55.015Z,99846.08
2018-03-16T03:36:59.225Z,99849.03
2018-03-16T03:38:03.538Z,99853.22
2018-03-16T03:39:13.539Z,99857.49
2018-03-16T03:40:21.741Z,99852.84
2018-03-16T03:41:25.921Z,99855.84
2018-03-16T03:42:30.124Z,99860.88
2018-03-16T03:43:37.848Z,99855.47
2018-03-16T03:44:46.944Z,99856.36
2018-03-16T03:45:52.148Z,99857.55
2018-03-16T03:46:57.080Z,99864.31
2018-03-16T03:48:02.046Z,99859.23
2018-03-16T03:49:10.663Z,99866.44
2018-03-16T03:50:18.543Z,99859.27
2018-03-16T03:51:24.254Z,99866.52
2018-03-16T03:52:29.214Z,99868.57
2018-03-16T03:53:33.385Z,99870.23
2018-03-16T03:54:42.829Z,99869.47
2018-03-16T03:55:50.720Z,99869.00
2018-03-16T03:56:55.054Z,99873.75
2018-03-16T03:57:59.229Z,99875.91
2018-03-16T03:59:03.462Z,99871.15
2018-03-16T04:00:16.051Z,99875.31
2018-03-16T04:01:22.285Z,99883.38
2018-03-16T04:02:26.465Z,99871.15
2018-03-16T04:03:30.635Z,99875.41
2018-03-16T04:04:38.408Z,99881.38
2018-03-16T04:05:48.237Z,99880.97
2018-03-16T04:06:52.917Z,99879.27
2018-03-16T04:07:57.138Z,99883.50
2018-03-16T04:09:01.313Z,99885.19
2018-03-16T04:10:10.724Z,99879.70
2018-03-16T04:11:16.729Z,99880.16
2018-03-16T04:12:23.562Z,99878.47
2018-03-16T04:13:28.562Z,99888.64
2018-03-16T04:14:32.731Z,99879.02
2018-03-16T04:15:42.059Z,99884.50
2018-03-16T04:16:48.372Z,99884.50
2018-03-16T04:17:53.587Z,99887.39
2018-03-16T04:18:57.746Z,99886.52
2018-03-16T04:20:01.962Z,99888.15
2018-03-16T04:21:10.363Z,99887.30
2018-03-16T04:22:16.120Z,99892.80
2018-03-16T04:23:22.410Z,99888.14
2018-03-16T04:24:26.669Z,99883.88
2018-03-16T04:25:30.907Z,99885.19
2018-03-16T04:26:38.112Z,99895.36
2018-03-16T04:27:46.658Z,99893.30
2018-03-16T04:28:51.805Z,99891.25
2018-03-16T04:29:56.015Z,99896.33
2018-03-16T04:31:00.253Z,99888.66
2018-03-16T04:32:10.352Z,99896.59
2018-03-16T04:33:18.302Z,99886.08
2018-03-16T04:34:22.988Z,99899.28
2018-03-16T04:35:27.160Z,99901.89
2018-03-16T04:36:31.347Z,99898.83
2018-03-16T04:37:42.662Z,99896.32
2018-03-16T04:38:51.656Z,99898.05
2018-03-16T04:39:56.651Z,99900.50
2018-03-16T04:41:00.828Z,99904.81
2018-03-16T04:42:09.463Z,99908.20
2018-03-16T04:43:17.765Z,99909.45
2018-03-16T04:44:23.660Z,99914.95
2018-03-16T04:45:28.671Z,99905.48
2018-03-16T04:46:32.862Z,99908.50
2018-03-16T04:47:42.313Z,99912.72
2018-03-16T04:48:47.849Z,99906.84
2018-03-16T04:49:53.234Z,99909.78
2018-03-16T04:50:57.491Z,99911.86
2018-03-16T04:52:01.711Z,99907.66
2018-03-16T04:53:10.361Z,99907.22
2018-03-16T04:54:19.547Z,99911.08
2018-03-16T04:55:25.210Z,99914.98
2018-03-16T04:56:29.426Z,99912.80
2018-03-16T04:57:38.585Z,99915.77
2018-03-16T04:58:45.817Z,99917.90
2018-03-16T04:59:51.604Z,99921.23
2018-03-16T05:00:55.826Z,99926.30
2018-03-16T05:02:00.051Z,99920.84
2018-03-16T05:03:07.390Z,99923.45
2018-03-16T05:04:15.991Z,99917.97
2018-03-16T05:05:21.844Z,99927.66
2018-03-16T05:06:26.245Z,99917.05
2018-03-16T05:07:30.631Z,99921.70
2018-03-16T05:08:37.648Z,99926.38
2018-03-16T05:09:45.495Z,99937.06
2018-03-16T05:10:52.989Z,99918.52
2018-03-16T05:11:57.215Z,99931.17
2018-03-16T05:13:01.408Z,99931.64
2018-03-16T05:14:08.636Z,99934.98
2018-03-16T05:15:17.269Z,99930.74
2018-03-16T05:16:23.582Z,99939.28
2018-03-16T05:17:27.746Z,99939.67
2018-03-16T05:18:31.943Z,99930.88
2018-03-16T05:19:45.222Z,99943.13
2018-03-16T05:20:52.495Z,99948.79
2018-03-16T05:21:56.692Z,99941.55
2018-03-16T05:23:00.874Z,99944.97
2018-03-16T05:24:08.340Z,99945.80
2018-03-16T05:25:15.988Z,99946.18
2018-03-16T05:26:23.092Z,99948.33
2018-03-16T05:27:27.318Z,99942.97
2018-03-16T05:28:31.482Z,99949.75
2018-03-16T05:29:39.122Z,99951.83
2018-03-16T05:30:46.598Z,99951.08
2018-03-16T05:31:52.762Z,99954.87
2018-03-16T05:32:57.767Z,99963.37
2018-03-16T05:34:01.959Z,99961.23
2018-03-16T05:35:08.492Z,99959.04
2018-03-16T05:36:16.430Z,99966.39
2018-03-16T05:37:21.341Z,99962.25
2018-03-16T05:38:25.531Z,99970.70
2018-03-16T05:39:30.496Z,99965.66
2018-03-16T05:40:36.853Z,99964.81
2018-03-16T05:41:44.498Z,99974.86
2018-03-16T05:42:50.513Z,99971.54
2018-03-16T05:43:54.687Z,99965.27
2018-03-16T05:44:58.859Z,99979.23
2018-03-16T05:46:03.127Z,99969.91
2018-03-16T05:47:14.351Z,99977.99
2018-03-16T05:48:22.910Z,99977.98
2018-03-16T05:49:27.118Z,99980.16
2018-03-16T05:50:31.283Z,99981.38
2018-03-16T05:51:41.280Z,99985.27
2018-03-16T05:52:50.166Z,99981.85
2018-03-16T05:53:54.523Z,99983.63
2018-03-16T05:54:58.704Z,99980.20
2018-03-16T05:56:12.226Z,99992.45
2018-03-16T05:57:44.373Z,99991.17
2018-03-16T05:59:03.654Z,99990.83
2018-03-16T06:00:13.804Z,99996.83
2018-03-16T06:01:21.366Z,99996.02
2018-03-16T06:02:25.804Z,99998.55
2018-03-16T06:03:30.011Z,99992.11
2018-03-16T06:04:35.566Z,99992.99
2018-03-16T06:05:43.697Z,99996.00
2018-03-16T06:06:49.921Z,100000.73
2018-03-16T06:07:54.531Z,100000.67
2018-03-16T06:08:58.729Z,100004.56
2018-03-16T06:10:02.959Z,100007.02
2018-03-16T06:11:10.354Z,100009.97
2018-03-16T06:12:16.751Z,100012.07
2018-03-16T06:13:22.198Z,100005.35
2018-03-16T06:14:27.173Z,100016.34
2018-03-16T06:15:31.433Z,100014.27
2018-03-16T06:16:38.562Z,100012.52
2018-03-16T06:17:44.536Z,100008.36
2018-03-16T06:18:50.648Z,100014.30
2018-03-16T06:19:54.871Z,100019.00
2018-03-16T06:20:59.142Z,100009.77
2018-03-16T06:22:05.658Z,100020.35
2018-03-16T06:23:14.593Z,100011.41
2018-03-16T06:24:21.409Z,100017.38
2018-03-16T06:26:29.777Z,100022.89
2018-03-16T06:27:34.920Z,100023.76
2018-03-16T06:28:41.677Z,100025.88
2018-03-16T06:29:48.475Z,100035.58
2018-03-16T06:30:52.964Z,100031.33
2018-03-16T06:31:57.217Z,100034.41
2018-03-16T06:33:02.388Z,100037.33
2018-03-16T06:34:08.375Z,100036.50
2018-03-16T06:35:14.563Z,100029.80
2018-03-16T06:36:20.198Z,100041.23
2018-03-16T06:37:24.442Z,100043.81
2018-03-16T06:38:28.643Z,100037.11
2018-03-16T06:39:33.589Z,100045.23
2018-03-16T06:40:40.959Z,100046.45
2018-03-16T06:41:46.295Z,100044.34
2018-03-16T06:42:50.547Z,100049.80
2018-03-16T06:43:54.764Z,100048.17
2018-03-16T06:44:59.035Z,100054.58
2018-03-16T06:46:03.191Z,100051.22
2018-03-16T06:47:09.912Z,100051.21
2018-03-16T06:48:16.118Z,100052.53
2018-03-16T06:49:20.641Z,100061.00
2018-03-16T06:50:24.834Z,100059.31
2018-03-16T06:51:29.057Z,100061.91
2018-03-16T06:52:33.305Z,100063.58
2018-03-16T06:53:39.480Z,100064.09
2018-03-16T06:54:45.439Z,100067.88
2018-03-16T06:55:49.761Z,100062.39
2018-03-16T06:56:53.955Z,100072.97
2018-03-16T06:57:58.169Z,100072.98
2018-03-16T06:59:02.426Z,100070.42
2018-03-16T07:00:09.946Z,100068.72
2018-03-16T07:01:14.390Z,100073.78
2018-03-16T07:02:21.764Z,100075.42
2018-03-16T07:03:25.958Z,100073.33
2018-03-16T07:04:30.979Z,100080.91
2018-03-16T07:05:37.062Z,100080.95
2018-03-16T07:06:43.402Z,100081.37
2018-03-16T07:07:49.467Z,100085.26
2018-03-16T07:08:53.699Z,100087.73
2018-03-16T07:09:57.919Z,100091.58
2018-03-16T07:11:02.133Z,100089.42
2018-03-16T07:12:10.551Z,100096.66
2018-03-16T07:13:16.130Z,100084.02
2018-03-16T07:14:20.787Z,100092.86
2018-03-16T07:15:39.265Z,100095.42
2018-03-16T07:16:46.134Z,100100.91
2018-03-16T07:17:51.040Z,100097.52
2018-03-16T07:18:55.297Z,100097.50
2018-03-16T07:19:59.492Z,100101.73
2018-03-16T07:21:04.128Z,100102.99
2018-03-16T07:22:08.457Z,100102.13
2018-03-16T07:23:14.116Z,100115.23
2018-03-16T07:24:19.188Z,100111.48
2018-03-16T07:25:23.384Z,100110.18
2018-03-16T07:26:27.599Z,100102.63
2018-03-16T07:27:31.835Z,100108.98
2018-03-16T07:28:38.992Z,100114.09
2018-03-16T07:29:44.082Z,100122.16
2018-03-16T07:30:51.018Z,100126.39
2018-03-16T07:31:55.741Z,100129.30
2018-03-16T07:33:00.881Z,100118.75
2018-03-16T07:34:07.127Z,100133.11
2018-03-16T07:35:12.205Z,100125.13
2018-03-16T07:36:18.214Z,100131.45
2018-03-16T07:37:22.469Z,100126.39
2018-03-16T07:38:27.444Z,100125.52
2018-03-16T07:39:31.644Z,100137.34
2018-03-16T07:40:37.365Z,100135.20
2018-03-16T07:41:42.489Z,100134.42
2018-03-16T07:42:48.394Z,100137.79
2018-03-16T07:43:52.589Z,100139.50
2018-03-16T07:44:56.783Z,100143.68
2018-03-16T07:46:03.589Z,100148.30
2018-03-16T07:47:10.409Z,100146.16
2018-03-16T07:48:18.106Z,100152.98
2018-03-16T07:49:23.740Z,100148.31
2018-03-16T07:50:27.965Z,100158.43
2018-03-16T07:51:32.177Z,100154.20
2018-03-16T07:52:41.454Z,100154.20
2018-03-16T07:53:46.791Z,100149.19
2018-03-16T07:54:51.938Z,100163.95
2018-03-16T07:55:57.015Z,100147.48
2018-03-16T07:57:01.210Z,100159.31
2018-03-16T07:58:10.010Z,100158.87
2018-03-16T07:59:15.791Z,100159.75
2018-03-16T08:00:21.408Z,100161.42
2018-03-16T08:01:26.018Z,100171.09
2018-03-16T08:02:30.997Z,100173.20
2018-03-16T08:03:39.763Z,100161.80
2018-03-16T08:04:45.475Z,100176.16
2018-03-16T08:05:52.165Z,100168.19
2018-03-16T08:06:56.403Z,100170.67
2018-03-16T08:08:00.627Z,100170.66
2018-03-16T08:09:06.137Z,100171.94
2018-03-16T08:10:11.970Z,100177.44
2018-03-16T08:11:17.208Z,100179.53
2018-03-16T08:12:22.016Z,100183.33
2018-03-16T08:13:26.186Z,100185.85
2018-03-16T08:14:31.170Z,100184.59
2018-03-16T08:15:38.656Z,100186.69
2018-03-16T08:16:45.917Z,100187.50
2018-03-16T08:17:50.546Z,100194.28
2018-03-16T08:18:54.920Z,100190.04
2018-03-16T08:19:59.868Z,100191.36
2018-03-16T08:21:04.724Z,100195.98
2018-03-16T08:22:12.664Z,100188.38
2018-03-16T08:23:18.250Z,100193.02
2018-03-16T08:24:22.873Z,100193.40
2018-03-16T08:25:27.207Z,100192.95
2018-03-16T08:26:31.410Z,100193.37
2018-03-16T08:27:37.988Z,100200.55
2018-03-16T08:28:43.471Z,100193.00
2018-03-16T08:29:50.568Z,100198.89
2018-03-16T08:30:54.896Z,100199.72
2018-03-16T08:31:59.074Z,100200.55
2018-03-16T08:33:03.344Z,100199.73
2018-03-16T08:34:10.574Z,100208.98
2018-03-16T08:35:16.247Z,100207.78
2018-03-16T08:36:21.580Z,100203.14
2018-03-16T08:37:25.774Z,100212.83
2018-03-16T08:38:29.975Z,100211.61
2018-03-16T08:39:34.909Z,100213.27
2018-03-16T08:40:40.970Z,100211.12
2018-03-16T08:41:46.010Z,100211.95
2018-03-16T08:42:51.609Z,100212.83
2018-03-16T08:43:56.568Z,100214.92
2018-03-16T08:45:00.815Z,100217.02
2018-03-16T08:46:07.850Z,100207.70
2018-03-16T08:47:14.244Z,100217.84
2018-03-16T08:48:21.126Z,100214.47
2018-03-16T08:49:25.726Z,100218.72
2018-03-16T08:50:29.908Z,100229.25
2018-03-16T08:51:38.276Z,100226.27
2018-03-16T08:52:44.609Z,100220.04
2018-03-16T08:53:50.603Z,100225.50
2018-03-16T08:54:55.237Z,100229.73
2018-03-16T08:55:59.447Z,100221.27
2018-03-16T08:57:04.123Z,100229.30
2018-03-16T08:58:10.129Z,100222.09
2018-03-16T08:59:15.589Z,100220.83
2018-03-16T09:00:21.831Z,100225.06
2018-03-16T09:01:26.048Z,100227.21
2018-03-16T09:02:30.269Z,100221.31
2018-03-16T09:03:36.895Z,100233.10
2018-03-16T09:04:42.874Z,100230.19
2018-03-16T09:05:49.254Z,100223.41
2018-03-16T09:06:54.595Z,100227.64
2018-03-16T09:07:58.850Z,100228.91
2018-03-16T09:09:03.055Z,100234.46
2018-03-16T09:10:10.499Z,100229.80
2018-03-16T09:11:15.659Z,100238.66
2018-03-16T09:12:21.612Z,100235.67
2018-03-16T09:13:25.828Z,100235.64
2018-03-16T09:14:30.083Z,100233.09
2018-03-16T09:15:37.237Z,100241.53
2018-03-16T09:16:44.919Z,100231.78
2018-03-16T09:17:51.405Z,100240.70
2018-03-16T09:18:56.350Z,100231.83
2018-03-16T09:20:00.574Z,100230.56
2018-03-16T09:21:08.510Z,100236.06
2018-03-16T09:22:14.650Z,100245.77
2018-03-16T09:23:21.642Z,100239.43
2018-03-16T09:24:25.901Z,100234.80
2018-03-16T09:25:30.901Z,100234.36
2018-03-16T09:26:38.459Z,100240.25
2018-03-16T09:27:46.245Z,100231.39
2018-03-16T09:28:53.054Z,100234.75
2018-03-16T09:29:58.087Z,100233.04
2018-03-16T09:31:02.278Z,100234.74
2018-03-16T09:32:10.904Z,100238.16
2018-03-16T09:33:17.106Z,100239.81
2018-03-16T09:34:23.372Z,100236.83
2018-03-16T09:35:27.643Z,100234.31
2018-03-16T09:36:31.844Z,100238.94
2018-03-16T09:37:38.291Z,100240.20
2018-03-16T09:38:46.078Z,100244.44
2018-03-16T09:39:51.779Z,100249.56
2018-03-16T09:40:56.826Z,100249.12
2018-03-16T09:42:01.022Z,100248.69
2018-03-16T09:43:09.087Z,100252.14
2018-03-16T09:44:16.741Z,100250.00
2018-03-16T09:45:21.907Z,100251.71
2018-03-16T09:46:26.269Z,100250.45
2018-03-16T09:47:31.239Z,100251.72
2018-03-16T09:48:37.952Z,100255.52
2018-03-16T09:49:45.601Z,100255.90
2018-03-16T09:50:51.747Z,100263.11
2018-03-16T09:51:56.059Z,100253.36
2018-03-16T09:53:00.244Z,100255.45
2018-03-16T09:54:06.575Z,100258.82
2018-03-16T09:55:29.489Z,100253.84
2018-03-16T09:56:35.334Z,100262.29
2018-03-16T09:57:43.331Z,100257.65
2018-03-16T09:58:51.400Z,100268.17
2018-03-16T09:59:56.548Z,100259.31
2018-03-16T10:01:01.455Z,100258.92
2018-03-16T10:02:08.840Z,100266.08
2018-03-16T10:03:13.540Z,100262.72
2018-03-16T10:04:21.638Z,100262.23
2018-03-16T10:05:25.861Z,100266.03
2018-03-16T10:06:30.061Z,100265.64
2018-03-16T10:07:36.995Z,100270.27
2018-03-16T10:08:44.425Z,100272.38
2018-03-16T10:09:50.426Z,100269.88
2018-03-16T10:10:54.685Z,100270.27
2018-03-16T10:11:58.897Z,100275.73
2018-03-16T10:13:03.157Z,100270.66
2018-03-16T10:14:11.637Z,100277.39
2018-03-16T10:15:18.924Z,100278.30
2018-03-16T10:16:24.226Z,100273.69
2018-03-16T10:17:28.462Z,100272.86
2018-03-16T10:18:33.407Z,100270.75
2018-03-16T10:19:44.596Z,100272.45
2018-03-16T10:20:52.339Z,100274.16
2018-03-16T10:21:56.769Z,100277.09
2018-03-16T10:23:01.479Z,100276.64
2018-03-16T10:24:12.192Z,100277.04
2018-03-16T10:25:21.439Z,100283.37
2018-03-16T10:26:25.638Z,100275.33
2018-03-16T10:27:29.874Z,100284.16
2018-03-16T10:28:35.283Z,100279.13
2018-03-16T10:29:42.682Z,100287.61
2018-03-16T10:30:50.116Z,100281.28
2018-03-16T10:31:54.350Z,100282.98
2018-03-16T10:32:59.383Z,100283.81
2018-03-16T10:34:05.125Z,100289.31
2018-03-16T10:35:15.350Z,100285.47
2018-03-16T10:36:20.985Z,100292.28
2018-03-16T10:37:25.220Z,100282.16
2018-03-16T10:38:30.190Z,100282.19
2018-03-16T10:39:35.927Z,100288.92
2018-03-16T10:40:46.740Z,100292.32
2018-03-16T10:41:53.135Z,100285.20
2018-03-16T10:42:57.426Z,100294.02
2018-03-16T10:44:01.590Z,100292.32
2018-03-16T10:45:08.878Z,100289.36
2018-03-16T10:46:15.541Z,100298.69
2018-03-16T10:47:21.872Z,100296.12
2018-03-16T10:48:27.177Z,100301.14
2018-03-16T10:49:31.360Z,100292.72
2018-03-16T10:50:40.063Z,100300.35
2018-03-16T10:51:46.297Z,100304.15
2018-03-16T10:52:52.448Z,100291.92
2018-03-16T10:53:56.763Z,100302.45
2018-03-16T10:55:01.705Z,100304.98
2018-03-16T10:56:09.452Z,100302.45
2018-03-16T10:57:15.475Z,100304.58
2018-03-16T10:58:21.739Z,100309.25
2018-03-16T10:59:26.822Z,100311.78
2018-03-16T11:00:37.028Z,100310.11
2018-03-16T11:01:49.739Z,100304.21
2018-03-16T11:02:54.588Z,100307.58
2018-03-16T11:04:13.154Z,100311.82
2018-03-16T11:07:10.713Z,100312.28
2018-03-16T11:08:21.242Z,100318.16
2018-03-16T11:09:25.486Z,100315.63
2018-03-16T11:10:29.674Z,100319.42
2018-03-16T11:11:34.292Z,100319.42
2018-03-16T11:12:41.274Z,100316.03
2018-03-16T11:13:47.413Z,100317.30
2018-03-16T11:14:51.608Z,100323.62
2018-03-16T11:15:55.814Z,100323.62
2018-03-16T11:17:00.056Z,100319.83
2018-03-16T11:18:07.407Z,100317.30
2018-03-16T11:19:13.187Z,100327.41
2018-03-16T11:20:18.429Z,100330.81
2018-03-16T11:21:22.625Z,100329.95
2018-03-16T11:22:26.848Z,100324.46
2018-03-16T11:23:31.101Z,100324.87
2018-03-16T11:24:37.190Z,100333.33
2018-03-16T11:25:43.236Z,100340.06
2018-03-16T11:26:48.509Z,100338.36
2018-03-16T11:27:52.799Z,100332.45
2018-03-16T11:28:57.045Z,100328.66
2018-03-16T11:30:01.266Z,100334.16
2018-03-16T11:31:07.101Z,100338.36
2018-03-16T11:32:12.167Z,100340.86
2018-03-16T11:33:16.880Z,100342.56
2018-03-16T11:34:21.128Z,100343.43
2018-03-16T11:35:25.334Z,100342.13
2018-03-16T11:36:29.520Z,100341.70
2018-03-16T11:37:35.138Z,100346.34
2018-03-16T11:38:40.939Z,100344.20
2018-03-16T11:39:45.761Z,100336.20
2018-03-16T11:40:50.056Z,100348.03
2018-03-16T11:41:54.264Z,100345.94
2018-03-16T11:42:58.475Z,100347.62
2018-03-16T11:44:02.726Z,100347.20
2018-03-16T11:45:09.264Z,100347.20
2018-03-16T11:46:14.280Z,100353.95
2018-03-16T11:47:18.979Z,100350.59
2018-03-16T11:48:23.959Z,100346.78
2018-03-16T11:49:28.215Z,100347.25
2018-03-16T11:50:33.219Z,100351.45
2018-03-16T11:51:39.688Z,100350.61
2018-03-16T11:52:44.677Z,100359.91
2018-03-16T11:53:50.358Z,100355.67
2018-03-16T11:54:54.616Z,100357.36
2018-03-16T11:55:59.918Z,100361.59
2018-03-16T11:57:05.963Z,100356.52
2018-03-16T11:58:12.434Z,100364.11
2018-03-16T11:59:18.172Z,100359.85
2018-03-16T12:00:22.431Z,100362.41
2018-03-16T12:01:27.412Z,100372.56
2018-03-16T12:03:44.120Z,100367.49
2018-03-16T12:04:50.162Z,100381.01
2018-03-16T12:05:54.406Z,100364.12
2018-03-16T12:06:58.662Z,100376.35
2018-03-16T12:08:02.951Z,100376.36
2018-03-16T12:09:11.372Z,100371.30
2018-03-16T12:10:18.318Z,100368.73
2018-03-16T12:11:22.851Z,100377.19
2018-03-16T12:12:27.079Z,100369.59
2018-03-16T12:13:32.049Z,100374.66
2018-03-16T12:14:40.587Z,100383.52
2018-03-16T12:15:46.733Z,100383.11
2018-03-16T12:16:52.432Z,100378.02
2018-03-16T12:17:56.686Z,100383.09
2018-03-16T12:19:00.883Z,100378.89
2018-03-16T12:20:07.815Z,100388.17
2018-03-16T12:21:14.249Z,100382.27
2018-03-16T12:22:19.876Z,100384.78
2018-03-16T12:23:24.124Z,100384.80
2018-03-16T12:24:29.081Z,100389.83
2018-03-16T12:25:33.280Z,100392.80
2018-03-16T12:26:41.590Z,100396.16
2018-03-16T12:27:46.734Z,100398.70
2018-03-16T12:28:51.912Z,100384.38
2018-03-16T12:29:56.264Z,100383.52
2018-03-16T12:31:00.497Z,100391.52
2018-03-16T12:32:07.495Z,100395.32
2018-03-16T12:33:14.392Z,100389.83
2018-03-16T12:34:21.108Z,100399.13
2018-03-16T12:35:26.124Z,100397.86
2018-03-16T12:36:30.350Z,100398.26
2018-03-16T12:37:36.342Z,100396.14
2018-03-16T12:38:42.476Z,100396.98
2018-03-16T12:39:48.383Z,100404.14
2018-03-16T12:40:53.473Z,100395.72
2018-03-16T12:41:57.675Z,100399.92
2018-03-16T12:43:01.870Z,100399.08
2018-03-16T12:44:08.522Z,100396.95
2018-03-16T12:45:13.797Z,100399.94
2018-03-16T12:46:19.789Z,100388.55
2018-03-16T12:47:24.095Z,100402.07